createdAt,value
2019-05-17T00:02:02.543Z,24.47
2019-05-17T00:04:33.305Z,28.10
2019-05-17T00:07:06.334Z,25.70
2019-05-17T00:09:37.438Z,27.17
2019-05-17T00:12:08.227Z,25.60
2019-05-17T00:14:38.869Z,33.17
2019-05-17T00:17:09.433Z,28.73
2019-05-17T00:19:41.710Z,43.10
2019-05-17T00:22:12.632Z,39.43
2019-05-17T00:24:43.418Z,36.03
2019-05-17T00:27:17.191Z,38.50
2019-05-17T00:29:48.130Z,33.37
2019-05-17T00:32:18.761Z,38.83
2019-05-17T00:34:49.620Z,41.53
2019-05-17T00:37:20.276Z,42.23
2019-05-17T00:39:51.147Z,36.00
2019-05-17T00:42:22.274Z,36.60
2019-05-17T00:44:52.823Z,39.97
2019-05-17T00:47:23.459Z,36.67
2019-05-17T00:49:54.068Z,33.30
2019-05-17T00:52:27.076Z,41.97
2019-05-17T00:54:56.874Z,44.27
2019-05-17T00:57:27.717Z,38.33
2019-05-17T00:59:58.469Z,45.80
2019-05-17T01:02:29.022Z,37.03
2019-05-17T01:05:02.070Z,41.40
2019-05-17T01:07:32.783Z,40.70
2019-05-17T01:10:03.385Z,31.80
2019-05-17T01:12:33.920Z,35.47
2019-05-17T01:15:07.483Z,33.77
2019-05-17T01:17:38.027Z,27.47
2019-05-17T01:20:10.313Z,25.50
2019-05-17T01:22:40.879Z,25.93
2019-05-17T01:25:12.309Z,23.90
2019-05-17T01:27:43.007Z,19.83
2019-05-17T01:30:13.811Z,27.33
2019-05-17T01:32:46.354Z,26.73
2019-05-17T01:35:16.911Z,29.30
2019-05-17T01:37:47.717Z,29.60
2019-05-17T01:40:18.492Z,27.33
2019-05-17T01:42:49.182Z,29.87
2019-05-17T01:45:19.938Z,28.37
2019-05-17T01:47:50.434Z,27.07
2019-05-17T01:50:22.196Z,23.27
2019-05-17T01:52:56.643Z,33.93
2019-05-17T01:55:27.402Z,29.30
2019-05-17T01:57:57.882Z,28.57
2019-05-17T02:00:28.468Z,26.07
2019-05-17T02:02:59.821Z,28.53
2019-05-17T02:05:30.647Z,29.17
2019-05-17T02:08:01.326Z,28.20
2019-05-17T02:10:32.506Z,26.43
2019-05-17T02:13:03.368Z,23.10
2019-05-17T02:15:33.760Z,26.70
2019-05-17T02:18:07.118Z,22.87
2019-05-17T02:20:37.595Z,19.83
2019-05-17T02:23:10.440Z,20.13
2019-05-17T02:25:41.388Z,18.20
2019-05-17T02:28:12.302Z,20.97
2019-05-17T02:30:44.076Z,21.93
2019-05-17T02:33:15.123Z,21.30
2019-05-17T02:35:45.679Z,22.10
2019-05-17T02:38:16.209Z,21.97
2019-05-17T02:40:46.793Z,23.43
2019-05-17T02:43:17.203Z,20.43
2019-05-17T02:45:47.942Z,24.23
2019-05-17T02:48:18.319Z,20.67
2019-05-17T02:50:49.143Z,22.80
2019-05-17T02:53:22.706Z,21.67
2019-05-17T02:55:53.898Z,20.03
2019-05-17T02:58:23.653Z,22.47
2019-05-17T03:00:53.895Z,25.50
2019-05-17T03:03:24.148Z,21.33
2019-05-17T03:05:55.620Z,19.57
2019-05-17T03:08:25.857Z,20.00
2019-05-17T03:10:56.282Z,20.77
2019-05-17T03:13:26.480Z,18.83
2019-05-17T03:15:56.760Z,19.70
2019-05-17T03:18:27.122Z,20.07
2019-05-17T03:20:57.365Z,22.20
2019-05-17T03:23:27.805Z,17.47
2019-05-17T03:25:58.305Z,20.27
2019-05-17T03:28:28.763Z,16.43
2019-05-17T03:30:59.071Z,20.23
2019-05-17T03:33:35.780Z,18.33
2019-05-17T03:36:06.193Z,20.93
2019-05-17T03:38:35.858Z,17.23
2019-05-17T03:41:17.731Z,22.43
2019-05-17T03:43:43.363Z,17.77
2019-05-17T03:46:13.602Z,20.73
2019-05-17T03:48:43.702Z,18.27
2019-05-17T03:51:14.158Z,15.03
2019-05-17T03:53:44.704Z,17.33
2019-05-17T03:56:15.380Z,18.87
2019-05-17T03:58:46.083Z,19.13
2019-05-17T04:01:16.867Z,21.57
2019-05-17T04:03:47.498Z,18.03
2019-05-17T04:06:18.372Z,19.73
2019-05-17T04:08:49.157Z,15.43
2019-05-17T04:11:28.009Z,19.13
2019-05-17T04:13:53.754Z,17.43
2019-05-17T04:16:24.969Z,16.27
2019-05-17T04:18:56.097Z,16.80
2019-05-17T04:21:26.794Z,20.63
2019-05-17T04:23:57.765Z,17.27
2019-05-17T04:26:28.293Z,18.13
2019-05-17T04:28:58.894Z,18.63
2019-05-17T04:31:31.764Z,16.47
2019-05-17T04:34:03.216Z,15.37
2019-05-17T04:36:34.047Z,17.20
2019-05-17T04:39:06.079Z,16.20
2019-05-17T04:41:45.652Z,17.77
2019-05-17T04:44:09.212Z,18.30
2019-05-17T04:46:43.139Z,14.13
2019-05-17T04:49:13.955Z,15.37
2019-05-17T04:51:45.257Z,14.67
2019-05-17T04:54:16.541Z,13.93
2019-05-17T04:56:47.558Z,12.37
2019-05-17T04:59:18.901Z,10.83
2019-05-17T05:01:49.870Z,16.33
2019-05-17T05:04:22.602Z,15.20
2019-05-17T05:06:54.394Z,12.50
2019-05-17T05:09:25.011Z,13.23
2019-05-17T05:12:01.117Z,8.27
2019-05-17T05:14:28.437Z,11.53
2019-05-17T05:17:02.700Z,16.10
2019-05-17T05:19:33.505Z,13.40
2019-05-17T05:22:04.808Z,14.63
2019-05-17T05:24:35.582Z,14.33
2019-05-17T05:27:06.229Z,14.57
2019-05-17T05:29:41.647Z,13.87
2019-05-17T05:32:12.453Z,14.10
2019-05-17T05:34:46.409Z,11.23
2019-05-17T05:37:15.177Z,14.33
2019-05-17T05:39:45.854Z,17.70
2019-05-17T05:42:16.718Z,15.17
2019-05-17T05:44:47.100Z,16.63
2019-05-17T05:47:19.184Z,14.70
2019-05-17T05:49:51.915Z,15.73
2019-05-17T05:52:22.454Z,15.10
2019-05-17T05:54:53.082Z,16.13
2019-05-17T05:57:23.658Z,16.83
2019-05-17T05:59:54.475Z,15.07
2019-05-17T06:02:25.149Z,17.67
2019-05-17T06:04:58.355Z,17.80
2019-05-17T06:07:29.068Z,18.30
2019-05-17T06:10:02.031Z,17.37
2019-05-17T06:12:32.303Z,16.03
2019-05-17T06:15:03.717Z,19.50
2019-05-17T06:17:34.799Z,16.47
2019-05-17T06:20:05.857Z,21.93
2019-05-17T06:22:36.829Z,21.07
2019-05-17T06:25:07.857Z,18.23
2019-05-17T06:27:38.873Z,22.23
2019-05-17T06:30:12.639Z,15.27
2019-05-17T06:32:45.603Z,18.90
2019-05-17T06:35:17.977Z,16.73
2019-05-17T06:37:53.589Z,19.67
2019-05-17T06:40:23.769Z,19.17
2019-05-17T06:42:54.372Z,21.73
2019-05-17T06:45:26.899Z,21.00
2019-05-17T06:47:59.213Z,21.57
2019-05-17T06:50:32.584Z,22.47
2019-05-17T06:53:03.199Z,20.20
2019-05-17T06:55:34.068Z,18.10
2019-05-17T06:58:05.137Z,20.03
2019-05-17T07:00:35.840Z,18.00
2019-05-17T07:03:06.652Z,21.27
2019-05-17T07:05:40.375Z,22.67
2019-05-17T07:08:14.397Z,18.97
2019-05-17T07:10:45.180Z,17.67
2019-05-17T07:13:16.214Z,21.93
2019-05-17T07:15:47.902Z,19.93
2019-05-17T07:18:20.167Z,20.47
2019-05-17T07:20:52.587Z,20.60
2019-05-17T07:23:23.385Z,22.60
2019-05-17T07:25:54.374Z,23.87
2019-05-17T07:28:26.833Z,27.63
2019-05-17T07:30:59.681Z,22.97
2019-05-17T07:33:30.729Z,22.30
2019-05-17T07:36:01.747Z,24.77
2019-05-17T07:38:32.586Z,27.67
2019-05-17T07:41:03.287Z,26.50
2019-05-17T07:43:34.175Z,26.23
2019-05-17T07:46:05.391Z,28.33
2019-05-17T07:48:36.327Z,27.50
2019-05-17T07:51:10.344Z,28.60
2019-05-17T07:53:41.319Z,28.10
2019-05-17T07:56:12.232Z,29.33
2019-05-17T07:58:43.180Z,25.17
2019-05-17T08:01:13.938Z,25.97
2019-05-17T08:03:44.720Z,25.77
2019-05-17T08:06:15.208Z,26.57
2019-05-17T08:08:46.584Z,24.73
2019-05-17T08:11:19.665Z,27.40
2019-05-17T08:13:50.473Z,28.27
2019-05-17T08:16:23.717Z,32.60
2019-05-17T08:18:54.490Z,29.07
2019-05-17T08:21:25.333Z,29.93
2019-05-17T08:23:56.260Z,22.57
2019-05-17T08:26:26.875Z,28.10
2019-05-17T08:28:57.655Z,27.70
2019-05-17T08:31:29.539Z,27.10
2019-05-17T08:34:01.271Z,28.67
2019-05-17T08:36:32.373Z,27.33
2019-05-17T08:39:04.930Z,27.07
2019-05-17T08:41:36.715Z,22.97
2019-05-17T08:44:10.056Z,22.73
2019-05-17T08:46:40.764Z,22.33
2019-05-17T08:49:11.671Z,22.93
2019-05-17T08:51:42.472Z,17.77
2019-05-17T08:54:13.811Z,18.97
2019-05-17T08:56:44.902Z,20.60
2019-05-17T08:59:15.992Z,18.60
2019-05-17T09:01:46.595Z,18.50
2019-05-17T09:04:17.338Z,21.50
2019-05-17T09:06:50.294Z,18.80
2019-05-17T09:09:20.803Z,19.37
2019-05-17T09:11:53.549Z,18.50
2019-05-17T09:14:24.437Z,16.47
2019-05-17T09:16:55.222Z,21.43
2019-05-17T09:19:26.150Z,21.17
2019-05-17T09:21:57.043Z,18.80
2019-05-17T09:24:29.897Z,18.97
2019-05-17T09:27:00.128Z,21.50
2019-05-17T09:29:30.682Z,18.53
2019-05-17T09:32:01.635Z,17.80
2019-05-17T09:34:32.432Z,22.27
2019-05-17T09:37:02.992Z,20.77
2019-05-17T09:39:33.690Z,19.77
2019-05-17T09:42:04.193Z,19.63
2019-05-17T09:44:35.144Z,22.63
2019-05-17T09:47:06.013Z,25.03
2019-05-17T09:49:36.734Z,26.63
2019-05-17T09:52:10.990Z,21.23
2019-05-17T09:54:45.514Z,24.67
2019-05-17T09:57:16.566Z,22.97
2019-05-17T09:59:49.592Z,24.00
2019-05-17T10:02:22.529Z,25.70
2019-05-17T10:04:53.385Z,22.83
2019-05-17T10:07:24.904Z,21.67
2019-05-17T10:09:55.844Z,18.63
2019-05-17T10:12:26.689Z,21.10
2019-05-17T10:14:57.628Z,19.63
2019-05-17T10:17:29.356Z,20.30
2019-05-17T10:20:00.525Z,19.10
2019-05-17T10:22:31.346Z,24.17
2019-05-17T10:25:04.909Z,19.00
2019-05-17T10:27:35.822Z,18.37
2019-05-17T10:30:06.995Z,18.73
2019-05-17T10:32:40.646Z,19.93
2019-05-17T10:35:11.897Z,17.50
2019-05-17T10:37:42.775Z,17.23
2019-05-17T10:40:13.877Z,17.40
2019-05-17T10:42:44.550Z,18.63
2019-05-17T10:45:15.858Z,19.10
2019-05-17T10:47:46.902Z,15.03
2019-05-17T10:50:20.397Z,19.27
2019-05-17T10:52:50.678Z,16.63
2019-05-17T10:55:23.660Z,18.13
2019-05-17T10:57:54.306Z,20.13
2019-05-17T11:00:25.275Z,20.10
2019-05-17T11:02:56.294Z,14.97
2019-05-17T11:05:27.023Z,15.23
2019-05-17T11:07:59.826Z,17.70
2019-05-17T11:10:30.668Z,17.67
2019-05-17T11:13:01.508Z,15.53
2019-05-17T11:15:32.048Z,18.10
2019-05-17T11:18:03.329Z,18.83
2019-05-17T11:20:34.119Z,11.40
2019-05-17T11:23:06.032Z,16.73
2019-05-17T11:25:36.981Z,15.20
2019-05-17T11:28:07.590Z,15.00
2019-05-17T11:30:38.343Z,16.07
2019-05-17T11:33:08.989Z,16.10
2019-05-17T11:35:41.131Z,14.13
2019-05-17T11:38:15.162Z,16.07
2019-05-17T11:40:49.758Z,16.07
2019-05-17T11:43:21.173Z,14.37
2019-05-17T11:45:51.767Z,14.07
2019-05-17T11:48:24.106Z,14.67
2019-05-17T11:50:55.829Z,15.17
2019-05-17T11:53:29.330Z,12.60
2019-05-17T11:56:03.135Z,12.40
2019-05-17T11:58:34.956Z,12.97
2019-05-17T12:01:06.153Z,14.10
2019-05-17T12:03:37.013Z,15.03
2019-05-17T12:06:10.832Z,16.67
2019-05-17T12:08:41.572Z,16.23
2019-05-17T12:11:12.189Z,11.70
2019-05-17T12:13:43.706Z,12.87
2019-05-17T12:16:14.492Z,13.80
2019-05-17T12:18:46.333Z,13.23
2019-05-17T12:21:17.621Z,15.40
2019-05-17T12:23:48.724Z,13.60
2019-05-17T12:26:23.672Z,12.43
2019-05-17T12:28:56.501Z,13.90
2019-05-17T12:31:28.095Z,12.17
2019-05-17T12:34:01.907Z,10.47
2019-05-17T12:36:33.289Z,12.23
2019-05-17T12:39:05.111Z,11.53
2019-05-17T12:41:39.437Z,14.27
2019-05-17T12:44:10.313Z,12.90
2019-05-17T12:46:45.785Z,13.00
2019-05-17T12:49:24.755Z,12.47
2019-05-17T12:51:55.999Z,12.07
2019-05-17T12:54:27.686Z,11.83
2019-05-17T12:56:58.335Z,10.90
2019-05-17T12:59:30.218Z,10.93
2019-05-17T13:02:00.936Z,11.70
2019-05-17T13:04:32.052Z,13.70
2019-05-17T13:07:02.860Z,12.47
2019-05-17T13:09:34.158Z,12.20
2019-05-17T13:12:07.536Z,12.80
2019-05-17T13:14:40.997Z,11.47
2019-05-17T13:17:11.924Z,12.97
2019-05-17T13:19:43.442Z,14.77
2019-05-17T13:22:14.869Z,9.90
2019-05-17T13:24:47.663Z,12.53
2019-05-17T13:27:18.791Z,12.97
2019-05-17T13:29:51.145Z,14.23
2019-05-17T13:32:22.029Z,12.90
2019-05-17T13:34:53.251Z,11.93
2019-05-17T13:37:24.694Z,13.60
2019-05-17T13:39:55.827Z,13.63
2019-05-17T13:42:26.850Z,15.80
2019-05-17T13:44:59.402Z,12.93
2019-05-17T13:47:30.996Z,13.67
2019-05-17T13:50:02.040Z,14.03
2019-05-17T13:52:32.562Z,14.60
2019-05-17T13:55:05.893Z,12.97
2019-05-17T13:57:36.477Z,13.50
2019-05-17T14:00:08.525Z,13.30
2019-05-17T14:02:42.809Z,13.90
2019-05-17T14:05:15.264Z,13.43
2019-05-17T14:07:45.945Z,14.30
2019-05-17T14:10:26.738Z,13.60
2019-05-17T14:12:53.868Z,13.27
2019-05-17T14:15:24.638Z,14.67
2019-05-17T14:17:55.179Z,12.23
2019-05-17T14:20:25.876Z,12.07
2019-05-17T14:22:56.624Z,12.33
2019-05-17T14:25:27.039Z,12.30
2019-05-17T14:27:58.056Z,12.83
2019-05-17T14:30:28.734Z,12.63
2019-05-17T14:32:59.538Z,12.73
2019-05-17T14:35:32.134Z,17.70
2019-05-17T14:38:03.054Z,14.90
2019-05-17T14:41:04.827Z,12.30
2019-05-17T14:43:11.740Z,12.50
2019-05-17T14:45:42.904Z,12.27
2019-05-17T14:48:14.134Z,11.07
2019-05-17T14:50:45.567Z,9.90
2019-05-17T14:53:17.149Z,9.37
2019-05-17T14:55:47.848Z,12.07
2019-05-17T14:58:21.639Z,10.67
2019-05-17T15:00:52.129Z,10.13
2019-05-17T15:03:24.799Z,10.13
2019-05-17T15:05:55.924Z,8.70
2019-05-17T15:08:26.595Z,9.23
2019-05-17T15:10:57.153Z,8.57
2019-05-17T15:13:30.464Z,9.00
2019-05-17T15:16:01.194Z,7.40
2019-05-17T15:18:31.756Z,9.27
2019-05-17T15:21:02.424Z,9.20
2019-05-17T15:23:32.927Z,6.57
2019-05-17T15:26:03.952Z,9.93
2019-05-17T15:28:36.538Z,8.97
2019-05-17T15:31:07.475Z,11.83
2019-05-17T15:33:38.387Z,9.50
2019-05-17T15:36:09.424Z,8.60
2019-05-17T15:38:40.081Z,8.93
2019-05-17T15:41:11.190Z,10.90
2019-05-17T15:43:42.094Z,10.50
2019-05-17T15:46:13.686Z,9.70
2019-05-17T15:48:44.438Z,9.73
2019-05-17T15:51:15.360Z,9.83
2019-05-17T15:53:46.242Z,8.73
2019-05-17T15:56:19.385Z,8.83
2019-05-17T15:58:50.648Z,9.93
2019-05-17T16:01:21.528Z,10.03
2019-05-17T16:03:52.238Z,11.03
2019-05-17T16:06:23.328Z,11.17
2019-05-17T16:08:56.178Z,11.90
2019-05-17T16:11:29.417Z,10.83
2019-05-17T16:14:05.855Z,10.23
2019-05-17T16:16:37.005Z,10.67
2019-05-17T16:19:08.311Z,10.50
2019-05-17T16:21:39.008Z,10.47
2019-05-17T16:24:10.364Z,11.53
2019-05-17T16:26:41.289Z,10.40
2019-05-17T16:29:14.045Z,10.57
2019-05-17T16:31:48.831Z,10.57
2019-05-17T16:34:20.258Z,10.33
2019-05-17T16:36:51.482Z,10.33
2019-05-17T16:39:23.364Z,10.77
2019-05-17T16:41:59.477Z,11.40
2019-05-17T16:44:30.306Z,11.30
2019-05-17T16:47:02.366Z,10.20
2019-05-17T16:49:33.967Z,9.73
2019-05-17T16:52:05.512Z,11.03
2019-05-17T16:54:36.520Z,10.93
2019-05-17T16:57:09.385Z,10.77
2019-05-17T16:59:40.666Z,10.00
2019-05-17T17:02:11.983Z,11.60
2019-05-17T17:04:43.698Z,10.83
2019-05-17T17:07:15.519Z,13.37
2019-05-17T17:09:47.004Z,10.77
2019-05-17T17:12:17.826Z,11.20
2019-05-17T17:14:48.616Z,11.30
2019-05-17T17:17:20.723Z,11.07
2019-05-17T17:19:51.758Z,11.87
2019-05-17T17:22:22.504Z,11.23
2019-05-17T17:24:53.318Z,11.70
2019-05-17T17:27:24.088Z,11.47
2019-05-17T17:29:55.398Z,11.53
2019-05-17T17:32:27.688Z,12.33
2019-05-17T17:35:02.622Z,10.97
2019-05-17T17:37:33.587Z,11.30
2019-05-17T17:40:04.322Z,11.47
2019-05-17T17:42:35.198Z,11.17
2019-05-17T17:45:06.324Z,12.57
2019-05-17T17:47:36.998Z,12.10
2019-05-17T17:50:08.622Z,12.13
2019-05-17T17:52:40.978Z,12.33
2019-05-17T17:55:12.021Z,12.70
2019-05-17T17:57:42.732Z,14.13
2019-05-17T18:00:14.380Z,12.63
2019-05-17T18:02:44.991Z,14.17
2019-05-17T18:05:16.058Z,19.17
2019-05-17T18:07:46.797Z,14.13
2019-05-17T18:10:32.357Z,15.00
2019-05-17T18:13:03.593Z,14.77
2019-05-17T18:15:39.828Z,18.57
2019-05-17T18:18:11.140Z,13.47
2019-05-17T18:20:42.219Z,13.23
2019-05-17T18:23:13.415Z,15.27
2019-05-17T18:25:44.456Z,13.90
2019-05-17T18:28:15.415Z,15.60
2019-05-17T18:30:46.519Z,15.83
2019-05-17T18:33:17.168Z,16.13
2019-05-17T18:35:48.236Z,16.70
2019-05-17T18:38:22.169Z,16.73
2019-05-17T18:40:52.976Z,13.73
2019-05-17T18:43:24.307Z,16.40
2019-05-17T18:45:55.092Z,12.83
2019-05-17T18:48:26.042Z,15.43
2019-05-17T18:50:57.068Z,14.97
2019-05-17T18:53:28.355Z,16.33
2019-05-17T18:55:59.192Z,16.93
2019-05-17T18:58:30.193Z,16.07
2019-05-17T19:01:00.976Z,16.47
2019-05-17T19:03:31.807Z,18.23
2019-05-17T19:06:05.216Z,18.37
2019-05-17T19:08:35.760Z,16.80
2019-05-17T19:11:06.426Z,17.13
2019-05-17T19:13:36.825Z,16.43
2019-05-17T19:16:07.200Z,16.97
2019-05-17T19:18:41.374Z,16.93
2019-05-17T19:21:16.988Z,16.43
2019-05-17T19:23:48.739Z,17.83
2019-05-17T19:26:19.291Z,15.87
2019-05-17T19:28:49.810Z,18.83
2019-05-17T19:31:20.114Z,18.77
2019-05-17T19:33:50.787Z,16.20
2019-05-17T19:36:21.419Z,15.37
2019-05-17T19:38:51.765Z,15.77
2019-05-17T19:41:22.084Z,15.27
2019-05-17T19:43:52.708Z,15.33
2019-05-17T19:46:23.585Z,18.50
2019-05-17T19:48:54.306Z,13.67
2019-05-17T19:51:24.947Z,15.27
2019-05-17T19:53:55.638Z,15.33
2019-05-17T19:56:28.067Z,14.80
2019-05-17T19:58:58.798Z,13.70
2019-05-17T20:01:29.392Z,15.63
2019-05-17T20:04:03.075Z,14.77
2019-05-17T20:06:33.792Z,14.67
2019-05-17T20:09:05.656Z,16.00
2019-05-17T20:11:36.113Z,15.57
2019-05-17T20:14:08.496Z,15.07
2019-05-17T20:16:40.124Z,15.73
2019-05-17T20:19:10.553Z,15.57
2019-05-17T20:21:41.326Z,16.50
2019-05-17T20:24:12.265Z,15.90
2019-05-17T20:26:42.861Z,18.67
2019-05-17T20:29:13.373Z,16.07
2019-05-17T20:31:44.109Z,17.17
2019-05-17T20:34:14.608Z,16.50
2019-05-17T20:36:45.418Z,15.63
2019-05-17T20:39:16.006Z,14.37
2019-05-17T20:41:46.781Z,16.13
2019-05-17T20:44:17.245Z,17.60
2019-05-17T20:46:48.814Z,14.57
2019-05-17T20:49:19.371Z,15.70
2019-05-17T20:51:50.224Z,16.50
2019-05-17T20:54:20.929Z,16.93
2019-05-17T20:56:51.316Z,17.87
2019-05-17T20:59:22.289Z,20.50
2019-05-17T21:01:52.746Z,16.60
2019-05-17T21:04:23.128Z,16.23
2019-05-17T21:06:53.695Z,62.17
2019-05-17T21:09:24.393Z,53.10
2019-05-17T21:11:54.944Z,46.90
2019-05-17T21:14:26.800Z,46.20
2019-05-17T21:16:57.223Z,47.93
2019-05-17T21:19:27.602Z,39.23
2019-05-17T21:22:00.651Z,29.70
2019-05-17T21:24:31.065Z,24.40
2019-05-17T21:27:01.515Z,24.67
2019-05-17T21:29:32.175Z,29.20
2019-05-17T21:32:02.659Z,31.40
2019-05-17T21:34:33.172Z,37.07
2019-05-17T21:37:03.575Z,42.43
2019-05-17T21:39:33.980Z,49.40
2019-05-17T21:42:04.395Z,50.47
2019-05-17T21:44:35.030Z,63.97
2019-05-17T21:47:05.415Z,51.73
2019-05-17T21:49:36.423Z,54.53
2019-05-17T21:52:06.842Z,51.90
2019-05-17T21:54:37.443Z,41.00
2019-05-17T21:57:10.184Z,22.57
2019-05-17T21:59:40.726Z,26.13
2019-05-17T22:02:11.286Z,21.83
2019-05-17T22:04:41.932Z,21.37
2019-05-17T22:07:13.357Z,25.20
2019-05-17T22:09:45.128Z,27.07
2019-05-17T22:12:15.511Z,22.10
2019-05-17T22:14:46.156Z,24.80
2019-05-17T22:17:16.871Z,24.13
2019-05-17T22:19:48.500Z,27.93
2019-05-17T22:22:19.056Z,27.93
2019-05-17T22:24:49.554Z,24.10
2019-05-17T22:27:20.160Z,21.77
2019-05-17T22:29:50.657Z,23.43
2019-05-17T22:32:21.093Z,24.03
2019-05-17T22:34:51.484Z,22.70
2019-05-17T22:37:21.853Z,21.20
2019-05-17T22:39:52.240Z,26.73
2019-05-17T22:42:22.656Z,24.17
2019-05-17T22:44:56.438Z,23.93
2019-05-17T22:47:27.129Z,24.30
2019-05-17T22:49:57.615Z,40.63
2019-05-17T22:52:28.457Z,43.13
2019-05-17T22:54:58.996Z,42.90
2019-05-17T22:57:29.559Z,26.13
2019-05-17T23:00:00.163Z,30.23
2019-05-17T23:02:30.810Z,32.23
2019-05-17T23:05:01.670Z,33.13
2019-05-17T23:07:33.376Z,29.13
2019-05-17T23:10:04.231Z,28.47
2019-05-17T23:12:34.911Z,27.30
2019-05-17T23:15:08.082Z,27.60
2019-05-17T23:17:38.928Z,25.50
2019-05-17T23:20:09.994Z,24.10
2019-05-17T23:22:40.567Z,27.07
2019-05-17T23:25:11.096Z,26.20
2019-05-17T23:27:41.537Z,25.00
2019-05-17T23:30:12.546Z,23.13
2019-05-17T23:32:43.077Z,23.37
2019-05-17T23:35:13.554Z,21.50
2019-05-17T23:37:44.042Z,24.37
2019-05-17T23:40:14.546Z,24.07
2019-05-17T23:42:45.170Z,19.90
2019-05-17T23:45:15.905Z,20.63
2019-05-17T23:47:46.873Z,20.00
2019-05-17T23:50:17.223Z,20.83
2019-05-17T23:52:48.235Z,20.43
2019-05-17T23:55:18.982Z,20.57
2019-05-17T23:57:49.348Z,20.87
